Time;durP1;ratioP1;P1;durP2;ratioP2;P2;SDS_P1;SDS_P2;PMS_P1;PMS_P2;Temp;Humidity;BMP_temperature;BMP_pressure;BME280_temperature;BME280_humidity;BME280_pressure;Samples;Min_cycle;Max_cycle;Signal;HPM_P1;HPM_P2
2019/04/16 00:29:54;;;;;;;26.1;19.7;;;;;;;;;;;;;
2019/04/16 00:32:25;;;;;;;25.8;19.4;;;;;;;;;;;;;
2019/04/16 00:34:44;;;;;;;25.7;19.7;;;;;;;;;;;;;
2019/04/16 00:37:13;;;;;;;25.6;20;;;;;;;;;;;;;
2019/04/16 00:39:38;;;;;;;29;20;;;;;;;;;;;;;
2019/04/16 00:42:03;;;;;;;26.2;19.5;;;;;;;;;;;;;
2019/04/16 00:44:29;;;;;;;26.7;20.3;;;;;;;;;;;;;
2019/04/16 00:46:55;;;;;;;29.5;19.1;;;;;;;;;;;;;
2019/04/16 00:49:20;;;;;;;24.1;18.5;;;;;;;;;;;;;
2019/04/16 00:51:46;;;;;;;22.2;17.7;;;;;;;;;;;;;
2019/04/16 00:54:11;;;;;;;23.7;18.1;;;;;;;;;;;;;
2019/04/16 00:56:36;;;;;;;22.2;18;;;;;;;;;;;;;
2019/04/16 00:59:01;;;;;;;23;18.1;;;;;;;;;;;;;
2019/04/16 01:01:26;;;;;;;28.6;17.4;;;;;;;;;;;;;
2019/04/16 01:03:51;;;;;;;22.1;16.6;;;;;;;;;;;;;
2019/04/16 01:06:17;;;;;;;19.5;16;;;;;;;;;;;;;
2019/04/16 01:08:42;;;;;;;19.5;16;;;;;;;;;;;;;
2019/04/16 01:11:07;;;;;;;20.9;16.3;;;;;;;;;;;;;
2019/04/16 01:13:32;;;;;;;18;15.3;;;;;;;;;;;;;
2019/04/16 01:15:58;;;;;;;21.2;16.5;;;;;;;;;;;;;
2019/04/16 01:18:23;;;;;;;22.9;17.9;;;;;;;;;;;;;
2019/04/16 01:20:49;;;;;;;25.5;18.2;;;;;;;;;;;;;
2019/04/16 01:23:14;;;;;;;23.5;18.3;;;;;;;;;;;;;
2019/04/16 01:25:39;;;;;;;24.6;17.1;;;;;;;;;;;;;
2019/04/16 01:28:05;;;;;;;20;16.5;;;;;;;;;;;;;
2019/04/16 01:30:41;;;;;;;20;15.9;;;;;;;;;;;;;
2019/04/16 01:33:02;;;;;;;20.8;15.9;;;;;;;;;;;;;
2019/04/16 01:40:12;;;;;;;18;14.6;;;;;;;;;;;;;
2019/04/16 01:42:36;;;;;;;18.4;13.2;;;;;;;;;;;;;
2019/04/16 01:45:02;;;;;;;18.9;13.8;;;;;;;;;;;;;
2019/04/16 01:47:27;;;;;;;18.1;13.8;;;;;;;;;;;;;
2019/04/16 01:49:53;;;;;;;19.9;14.9;;;;;;;;;;;;;
2019/04/16 01:52:18;;;;;;;19.1;13.9;;;;;;;;;;;;;
2019/04/16 01:54:47;;;;;;;17.8;12.8;;;;;;;;;;;;;
2019/04/16 01:57:12;;;;;;;15;12.1;;;;;;;;;;;;;
2019/04/16 01:59:37;;;;;;;18.8;12.9;;;;;;;;;;;;;
2019/04/16 02:02:02;;;;;;;16.3;12.5;;;;;;;;;;;;;
2019/04/16 02:04:27;;;;;;;16.4;12.1;;;;;;;;;;;;;
2019/04/16 02:06:54;;;;;;;17;12.4;;;;;;;;;;;;;
2019/04/16 02:09:19;;;;;;;14.5;12.4;;;;;;;;;;;;;
2019/04/16 02:11:44;;;;;;;17.2;12.3;;;;;;;;;;;;;
2019/04/16 02:14:09;;;;;;;16.1;12.9;;;;;;;;;;;;;
2019/04/16 02:16:36;;;;;;;15.8;11.7;;;;;;;;;;;;;
2019/04/16 02:19:01;;;;;;;14.9;12.7;;;;;;;;;;;;;
2019/04/16 02:21:26;;;;;;;15.7;12.9;;;;;;;;;;;;;
2019/04/16 02:23:52;;;;;;;17.8;13.4;;;;;;;;;;;;;
2019/04/16 02:26:17;;;;;;;14.4;12;;;;;;;;;;;;;
2019/04/16 02:28:42;;;;;;;15.7;12.9;;;;;;;;;;;;;
2019/04/16 02:31:07;;;;;;;16.6;13.6;;;;;;;;;;;;;
2019/04/16 02:33:32;;;;;;;17.5;13.4;;;;;;;;;;;;;
2019/04/16 02:35:57;;;;;;;17.1;13.1;;;;;;;;;;;;;
2019/04/16 02:38:22;;;;;;;18;13.7;;;;;;;;;;;;;
2019/04/16 02:40:47;;;;;;;17;13;;;;;;;;;;;;;
2019/04/16 02:43:12;;;;;;;16.4;12.3;;;;;;;;;;;;;
2019/04/16 02:45:37;;;;;;;15.2;12.3;;;;;;;;;;;;;
2019/04/16 02:48:03;;;;;;;14.9;11.8;;;;;;;;;;;;;
2019/04/16 02:50:34;;;;;;;14.2;11.4;;;;;;;;;;;;;
2019/04/16 02:53:03;;;;;;;14.4;11;;;;;;;;;;;;;
2019/04/16 02:55:37;;;;;;;16.1;12.1;;;;;;;;;;;;;
2019/04/16 03:00:20;;;;;;;20.5;14.7;;;;;;;;;;;;;
2019/04/16 03:02:44;;;;;;;18;14.3;;;;;;;;;;;;;
2019/04/16 03:05:07;;;;;;;18.2;14.3;;;;;;;;;;;;;
2019/04/16 03:07:27;;;;;;;17.6;13.6;;;;;;;;;;;;;
2019/04/16 03:09:53;;;;;;;18.6;14;;;;;;;;;;;;;
2019/04/16 03:12:18;;;;;;;18.5;13.8;;;;;;;;;;;;;
2019/04/16 03:14:44;;;;;;;17.4;12.6;;;;;;;;;;;;;
2019/04/16 03:19:37;;;;;;;19.8;14.1;;;;;;;;;;;;;
2019/04/16 03:21:59;;;;;;;18.1;13;;;;;;;;;;;;;
2019/04/16 03:24:24;;;;;;;18.3;13;;;;;;;;;;;;;
2019/04/16 03:26:49;;;;;;;17.3;10.9;;;;;;;;;;;;;
2019/04/16 03:29:14;;;;;;;16.1;11.7;;;;;;;;;;;;;
2019/04/16 03:31:40;;;;;;;17.2;10.9;;;;;;;;;;;;;
2019/04/16 03:34:05;;;;;;;13.4;10.7;;;;;;;;;;;;;
2019/04/16 03:36:30;;;;;;;12.7;10.8;;;;;;;;;;;;;
2019/04/16 03:38:56;;;;;;;14;10.9;;;;;;;;;;;;;
2019/04/16 03:41:21;;;;;;;16.6;10.3;;;;;;;;;;;;;
2019/04/16 03:43:46;;;;;;;15.1;11.2;;;;;;;;;;;;;
2019/04/16 03:46:14;;;;;;;14.2;10.6;;;;;;;;;;;;;
2019/04/16 03:48:39;;;;;;;15.7;11.4;;;;;;;;;;;;;
2019/04/16 03:51:02;;;;;;;17.5;12.3;;;;;;;;;;;;;
2019/04/16 03:53:27;;;;;;;18.9;12.1;;;;;;;;;;;;;
2019/04/16 03:55:52;;;;;;;16.8;11.7;;;;;;;;;;;;;
2019/04/16 03:58:18;;;;;;;18.5;12.9;;;;;;;;;;;;;
2019/04/16 04:02:30;;;;;;;16.2;12.3;;;;;;;3.61;83.53027;937.8887;;;;
2019/04/16 04:04:55;;;;;;;16.8;11.3;;;;;;;3.12;86.41895;937.9375;;;;
2019/04/16 04:07:20;;;;;;;16;10.4;;;;;;;3.27;86.00098;937.8313;;;;
2019/04/16 04:09:45;;;;;;;14.8;10.6;;;;;;;3.14;86.70313;937.8569;;;;
2019/04/16 04:12:10;;;;;;;15;10.1;;;;;;;3.07;87.1377;937.8569;;;;
2019/04/16 04:14:36;;;;;;;14;9.9;;;;;;;3.64;84.5127;937.9455;;;;
2019/04/16 04:17:01;;;;;;;21;9.8;;;;;;;3.64;84.27832;937.9032;;;;
2019/04/16 04:19:26;;;;;;;12.5;9.7;;;;;;;3.74;83.54395;937.8672;;;;
2019/04/16 04:21:51;;;;;;;11.4;9.4;;;;;;;3.98;82.28906;937.8797;;;;
2019/04/16 04:24:16;;;;;;;17.4;11.6;;;;;;;4.02;81.93555;937.8984;;;;
2019/04/16 04:26:46;;;;;;;24;11.8;;;;;;;3.8;82.29883;937.972;;;;
2019/04/16 04:29:07;;;;;;;16.7;11.6;;;;;;;3.27;85.45117;938.0201;;;;
2019/04/16 04:31:32;;;;;;;20.1;13.4;;;;;;;3.66;84.02344;937.9394;;;;
2019/04/16 04:33:57;;;;;;;17.5;12.8;;;;;;;3.82;83.17773;938.0214;;;;
2019/04/16 04:36:22;;;;;;;13.5;10.5;;;;;;;4.07;81.2041;938.0837;;;;
2019/04/16 04:38:47;;;;;;;13.2;9.3;;;;;;;4.04;80.93848;938.0234;;;;
2019/04/16 04:41:12;;;;;;;15.7;9.7;;;;;;;3.35;84.93848;938.0317;;;;
2019/04/16 04:43:37;;;;;;;16.9;9.1;;;;;;;3.48;84.17871;938.0399;;;;
2019/04/16 04:46:02;;;;;;;11.3;8.1;;;;;;;4.01;81.93457;937.9792;;;;
2019/04/16 04:48:28;;;;;;;16.6;8.6;;;;;;;3.91;81.83594;938.0781;;;;
2019/04/16 04:50:53;;;;;;;13.2;8.1;;;;;;;3.65;83.96582;938.1208;;;;
2019/04/16 04:53:18;;;;;;;14;9.7;;;;;;;3.44;85.0127;938.1563;;;;
2019/04/16 04:55:44;;;;;;;18.3;10;;;;;;;3.77;83.75098;938.2264;;;;
2019/04/16 04:58:09;;;;;;;17.1;10.1;;;;;;;3.8;82.73535;938.199;;;;
2019/04/16 05:00:34;;;;;;;21.1;10.7;;;;;;;3.42;84.76172;938.25;;;;
2019/04/16 05:03:06;;;;;;;20.1;11.5;;;;;;;3.2;85.58301;938.2556;;;;
2019/04/16 05:05:36;;;;;;;20;10.8;;;;;;;3.28;85.50977;938.2252;;;;
2019/04/16 05:07:55;;;;;;;14.4;10.5;;;;;;;3.19;85.77344;938.2138;;;;
2019/04/16 05:10:20;;;;;;;20;10.6;;;;;;;3.75;83.34473;938.2148;;;;
2019/04/16 05:12:45;;;;;;;19.1;11.3;;;;;;;3.85;82.41797;938.2758;;;;
2019/04/16 05:17:07;;;;;;;21.2;11.5;;;;;;;3.76;82.54883;938.3358;;;;
2019/04/16 05:19:32;;;;;;;22.3;12.2;;;;;;;3.69;83.23145;938.3072;;;;
2019/04/16 05:21:57;;;;;;;20.1;11.7;;;;;;;3.52;83.6582;938.3103;;;;
2019/04/16 05:24:23;;;;;;;24.6;11.4;;;;;;;3.83;82.41504;938.2941;;;;
2019/04/16 05:26:50;;;;;;;24.4;12.5;;;;;;;3.97;81.72266;938.3636;;;;
2019/04/16 05:29:13;;;;;;;29.1;13.9;;;;;;;3.7;83.12207;938.3652;;;;
2019/04/16 05:31:39;;;;;;;29.8;15.2;;;;;;;3.87;82.46875;938.3453;;;;
2019/04/16 05:34:04;;;;;;;25.2;12.6;;;;;;;3.85;82.44238;938.3933;;;;
2019/04/16 05:36:29;;;;;;;16.5;8.6;;;;;;;4.53;81.07617;938.2789;;;;
2019/04/16 05:38:54;;;;;;;14;7.6;;;;;;;6.23;73.91602;938.3992;;;;
2019/04/16 05:41:20;;;;;;;17.4;7.1;;;;;;;7.18;70.0127;938.2695;;;;
2019/04/16 05:43:45;;;;;;;17.6;6.7;;;;;;;8.07;66.63867;938.2724;;;;
2019/04/16 05:46:10;;;;;;;14.1;7;;;;;;;9.31;61.76563;938.2542;;;;
2019/04/16 05:48:35;;;;;;;16.5;7.2;;;;;;;10.34;57.66797;938.2795;;;;
2019/04/16 05:51:00;;;;;;;19.8;6.9;;;;;;;10.74;56.53223;938.2297;;;;
2019/04/16 05:53:26;;;;;;;14.4;5.9;;;;;;;11.6;54.1377;938.3125;;;;
2019/04/16 05:55:58;;;;;;;15;5.3;;;;;;;12.4;51.34863;938.2589;;;;
2019/04/16 05:58:16;;;;;;;26.8;5.7;;;;;;;12.7;49.92676;938.2288;;;;
2019/04/16 06:00:54;;;;;;;18.9;5.2;;;;;;;12.15;51.67383;938.2674;;;;
2019/04/16 06:03:06;;;;;;;27.3;5.7;;;;;;;13.03;49.41309;938.2039;;;;
2019/04/16 06:05:31;;;;;;;24.1;6.2;;;;;;;13.81;47.48926;938.3303;;;;
2019/04/16 06:08:08;;;;;;;16.3;4.9;;;;;;;14.38;45.25879;938.2775;;;;
2019/04/16 06:10:23;;;;;;;11.4;4.4;;;;;;;14.22;44.5625;938.2447;;;;
2019/04/16 06:15:33;;;;;;;14.8;4.4;;;;;;;13.02;47.3916;938.2255;;;;
2019/04/16 06:17:57;;;;;;;5.7;3.5;;;;;;;13.21;46.72266;938.2188;;;;
2019/04/16 06:20:35;;;;;;;7;2.7;;;;;;;13.9;44.8291;938.2742;;;;
2019/04/16 06:22:42;;;;;;;5.9;3;;;;;;;14.69;42.35059;938.1845;;;;
2019/04/16 06:30:16;;;;;;;6;2.8;;;;;;;14.84;43.31152;938.134;;;;
2019/04/16 06:32:40;;;;;;;10.6;3;;;;;;;14.37;44.1748;938.1422;;;;
2019/04/16 06:35:01;;;;;;;7.3;3.1;;;;;;;14.87;43.46387;938.1731;;;;
2019/04/16 06:37:18;;;;;;;7.1;3.2;;;;;;;15.64;41.25293;938.0699;;;;
2019/04/16 06:39:54;;;;;;;5.8;3;;;;;;;14.96;42.36523;938.0522;;;;
2019/04/16 06:42:25;;;;;;;7.5;2.7;;;;;;;14.24;45.11719;938.1613;;;;
2019/04/16 06:44:28;;;;;;;5.1;2.3;;;;;;;14.75;43.34961;938.0919;;;;
2019/04/16 06:47:06;;;;;;;6.8;2.6;;;;;;;14.22;44.58496;938.1038;;;;
2019/04/16 06:49:34;;;;;;;7.9;2.5;;;;;;;14.22;43.37695;938.0517;;;;
2019/04/16 06:57:16;;;;;;;6.6;2.3;;;;;;;16.02;39.10449;938.0173;;;;
2019/04/16 06:59:50;;;;;;;4.1;2.6;;;;;;;16.18;39.14063;937.9905;;;;
2019/04/16 07:04:41;;;;;;;7.3;3.1;;;;;;;15.15;40.89551;938.0269;;;;
2019/04/16 07:09:36;;;;;;;3.6;2.3;;;;;;;15.11;39.58789;937.9967;;;;
2019/04/16 07:11:45;;;;;;;3.6;2.4;;;;;;;14.9;40.04102;937.9989;;;;
2019/04/16 07:14:09;;;;;;;6.3;2.4;;;;;;;15.84;38.16309;938.0126;;;;
2019/04/16 07:16:35;;;;;;;3.7;2.2;;;;;;;15.92;37.03711;937.9523;;;;
2019/04/16 07:19:01;;;;;;;5.1;2.1;;;;;;;15.42;38.15039;938.0129;;;;
2019/04/16 07:21:26;;;;;;;5.4;2.1;;;;;;;15.89;37.21973;937.9856;;;;
2019/04/16 07:23:51;;;;;;;5.7;2.3;;;;;;;16.73;36.67676;937.9778;;;;
2019/04/16 07:26:16;;;;;;;5.6;2.3;;;;;;;17.02;36.57422;937.9731;;;;
2019/04/16 07:28:50;;;;;;;3.9;2.1;;;;;;;18.51;32.80273;937.8976;;;;
2019/04/16 07:38:20;;;;;;;4.8;2;;;;;;;20.9;27.13477;937.8567;;;;
2019/04/16 07:40:51;;;;;;;1.6;1.4;;;;;;;21.42;25.75;937.8169;;;;
2019/04/16 07:45:58;;;;;;;5.7;1.6;;;;;;;21.35;27.24414;937.8225;;;;
2019/04/16 07:50:12;;;;;;;3;1.2;;;;;;;22.71;22.76172;937.74;;;;
2019/04/16 07:52:42;;;;;;;3.5;1.3;;;;;;;22.91;22.9834;937.6678;;;;
2019/04/16 07:57:20;;;;;;;4;1.7;;;;;;;22.87;24.56738;937.6643;;;;
2019/04/16 07:59:47;;;;;;;1.6;1.3;;;;;;;23.78;21.51074;937.5891;;;;
2019/04/16 08:02:12;;;;;;;1.8;1.1;;;;;;;22.87;23.42773;937.5914;;;;
2019/04/16 08:04:37;;;;;;;2.5;1.2;;;;;;;22.39;23.44922;937.5688;;;;
2019/04/16 08:07:05;;;;;;;2.5;1.2;;;;;;;23.85;21.10156;937.5181;;;;
2019/04/16 08:09:31;;;;;;;9.2;1.6;;;;;;;24.57;21.72461;937.575;;;;
2019/04/16 08:11:56;;;;;;;4.4;1.4;;;;;;;25.43;19.4873;937.5659;;;;
2019/04/16 08:14:23;;;;;;;2.5;1.1;;;;;;;24.04;20.36816;937.5418;;;;
2019/04/16 08:16:48;;;;;;;3.4;1.2;;;;;;;24.22;19.91797;937.5142;;;;
2019/04/16 08:19:13;;;;;;;2.2;1.2;;;;;;;24.64;19.47656;937.5388;;;;
2019/04/16 08:21:38;;;;;;;2.5;1.1;;;;;;;24.89;19.94727;937.5293;;;;
2019/04/16 08:24:08;;;;;;;2.8;1;;;;;;;23.45;20.4834;937.5632;;;;
2019/04/16 08:26:29;;;;;;;2.9;1.2;;;;;;;22.92;21.84473;937.5627;;;;
2019/04/16 08:28:54;;;;;;;2.6;1;;;;;;;22.72;20.05078;937.5989;;;;
2019/04/16 08:31:22;;;;;;;1.9;1.1;;;;;;;22.74;20.60352;937.4708;;;;
2019/04/16 08:33:44;;;;;;;1.7;1;;;;;;;22.42;19.63867;937.5204;;;;
2019/04/16 08:36:12;;;;;;;4.7;1.2;;;;;;;23.13;21.65527;937.5019;;;;
2019/04/16 08:38:37;;;;;;;2.3;0.8;;;;;;;23.02;19.21777;937.4263;;;;
2019/04/16 08:41:03;;;;;;;2.3;0.9;;;;;;;24.98;18.41797;937.4563;;;;
2019/04/16 08:43:31;;;;;;;2.3;0.8;;;;;;;25.12;17.99902;937.4736;;;;
2019/04/16 08:45:56;;;;;;;2;0.7;;;;;;;24.92;17.41309;937.4736;;;;
2019/04/16 08:48:22;;;;;;;1.1;0.8;;;;;;;23.86;17.59473;937.491;;;;
2019/04/16 08:50:47;;;;;;;3;0.9;;;;;;;24.22;19.55273;937.4881;;;;
2019/04/16 08:53:12;;;;;;;1.7;0.8;;;;;;;24.63;19.09961;937.4658;;;;
2019/04/16 08:55:38;;;;;;;2.5;0.7;;;;;;;24.47;18.84473;937.503;;;;
2019/04/16 08:58:03;;;;;;;2.2;0.7;;;;;;;26.41;16.10938;937.5469;;;;
2019/04/16 09:00:28;;;;;;;1.1;0.7;;;;;;;25.74;15.02148;937.5269;;;;
2019/04/16 09:02:54;;;;;;;1.1;0.8;;;;;;;22.51;17.96387;937.5256;;;;
2019/04/16 09:05:19;;;;;;;2.5;0.9;;;;;;;23.36;18.32715;937.5464;;;;
2019/04/16 09:07:44;;;;;;;1.1;0.8;;;;;;;22.37;18.39258;937.5151;;;;
2019/04/16 09:10:20;;;;;;;1.8;0.8;;;;;;;21.76;18.66016;937.4631;;;;
2019/04/16 09:12:37;;;;;;;2.9;0.8;;;;;;;22.81;18.98633;937.4088;;;;
2019/04/16 09:15:02;;;;;;;0.9;0.7;;;;;;;23.61;17.18555;937.4136;;;;
2019/04/16 09:17:34;;;;;;;3.6;0.9;;;;;;;23.6;17.82031;937.3729;;;;
2019/04/16 09:20:10;;;;;;;1.9;0.8;;;;;;;23.08;18.09277;937.4097;;;;
2019/04/16 09:22:18;;;;;;;2.5;0.9;;;;;;;24.32;16.66992;937.3486;;;;
2019/04/16 09:24:59;;;;;;;1;0.7;;;;;;;23.6;17.5498;937.3898;;;;
2019/04/16 09:27:13;;;;;;;1.1;0.8;;;;;;;23.85;16.5;937.4269;;;;
2019/04/16 09:32:59;;;;;;;0.8;0.7;;;;;;;21.39;19.28809;937.3286;;;;
2019/04/16 09:39:40;;;;;;;2.9;1.1;;;;;;;23;18.03027;937.3127;;;;
2019/04/16 09:41:56;;;;;;;1.9;0.9;;;;;;;23.32;19.50098;937.2531;;;;
2019/04/16 09:44:21;;;;;;;0.9;0.7;;;;;;;21.9;19.09961;937.2134;;;;
2019/04/16 09:46:46;;;;;;;1.3;0.7;;;;;;;21.9;17.48242;937.3133;;;;
2019/04/16 09:49:12;;;;;;;2.7;0.8;;;;;;;21.83;17.81934;937.2891;;;;
2019/04/16 09:51:39;;;;;;;2;0.7;;;;;;;22.07;17.81738;937.2809;;;;
2019/04/16 09:54:04;;;;;;;1.9;0.8;;;;;;;21.82;22.01367;937.2859;;;;
2019/04/16 09:56:33;;;;;;;0.8;0.7;;;;;;;22.58;18.55371;937.2391;;;;
2019/04/16 09:59:00;;;;;;;4;0.8;;;;;;;23.7;17.50586;937.2933;;;;
2019/04/16 10:01:26;;;;;;;0.7;0.7;;;;;;;24.65;17.7207;937.2719;;;;
2019/04/16 10:03:52;;;;;;;1;0.8;;;;;;;24.73;15.40039;937.2459;;;;
2019/04/16 10:06:16;;;;;;;1.2;1.1;;;;;;;24.84;19.81641;937.2598;;;;
2019/04/16 10:08:43;;;;;;;2.5;0.9;;;;;;;25.18;16.98633;937.2124;;;;
2019/04/16 10:11:10;;;;;;;1.7;0.7;;;;;;;24.21;15.33594;937.2419;;;;
2019/04/16 10:13:39;;;;;;;0.9;0.7;;;;;;;24.11;18.37012;937.1358;;;;
2019/04/16 10:16:10;;;;;;;1.9;1;;;;;;;24.82;22.13867;937.198;;;;
2019/04/16 10:18:35;;;;;;;1.3;1.2;;;;;;;25.83;20.12012;937.1291;;;;
2019/04/16 10:21:01;;;;;;;1.5;1.3;;;;;;;26.29;20.95703;937.139;;;;
2019/04/16 10:23:45;;;;;;;1.4;1;;;;;;;25.39;23.5127;937.041;;;;
2019/04/16 10:26:01;;;;;;;1.8;1.1;;;;;;;24.46;23.92383;937.0193;;;;
2019/04/16 10:28:31;;;;;;;1.4;1.1;;;;;;;23.58;24.59375;937.05;;;;
2019/04/16 10:30:55;;;;;;;1.6;1.1;;;;;;;23.44;25.02148;937.0492;;;;
2019/04/16 10:33:29;;;;;;;3.2;1.1;;;;;;;23.83;23.40723;937.1169;;;;
2019/04/16 10:36:12;;;;;;;1.3;0.9;;;;;;;23.41;22.70313;937.1355;;;;
2019/04/16 10:41:07;;;;;;;2.1;1.2;;;;;;;24.05;23.13672;937.11;;;;
2019/04/16 10:47:21;;;;;;;2.9;1.2;;;;;;;24.7;22.81641;937.0435;;;;
2019/04/16 10:51:51;;;;;;;3.4;1.1;;;;;;;26.47;18.81055;936.9899;;;;
2019/04/16 10:58:54;;;;;;;1;0.8;;;;;;;26.98;17.14941;936.9597;;;;
2019/04/16 11:01:21;;;;;;;1.6;0.8;;;;;;;28.67;14.75098;936.9202;;;;
2019/04/16 11:03:37;;;;;;;1.3;0.9;;;;;;;27.7;15.97754;936.8681;;;;
2019/04/16 11:06:08;;;;;;;0.6;0.5;;;;;;;27.63;14.30176;936.967;;;;
2019/04/16 11:08:36;;;;;;;0.7;0.6;;;;;;;28.12;13.88965;936.8377;;;;
2019/04/16 11:11:01;;;;;;;0.7;0.7;;;;;;;29.22;13.18555;936.87;;;;
2019/04/16 11:13:29;;;;;;;1;0.8;;;;;;;29.15;16.75586;936.8399;;;;
2019/04/16 11:16:11;;;;;;;1.3;0.9;;;;;;;28.09;15.58789;936.8521;;;;
2019/04/16 11:18:31;;;;;;;2.2;0.8;;;;;;;27.74;15.54004;936.884;;;;
2019/04/16 11:21:03;;;;;;;0.8;0.7;;;;;;;27.56;14.37109;936.9296;;;;
2019/04/16 11:23:28;;;;;;;1.7;0.7;;;;;;;28.89;14.65137;936.8973;;;;
2019/04/16 11:25:53;;;;;;;1;0.7;;;;;;;31.42;12.3877;936.8488;;;;
2019/04/16 11:28:18;;;;;;;0.6;0.6;;;;;;;33.28;10.70801;936.9114;;;;
2019/04/16 11:30:46;;;;;;;0.6;0.6;;;;;;;35.61;9.216797;936.9208;;;;
2019/04/16 11:33:09;;;;;;;2;0.7;;;;;;;34.8;8.223633;936.9373;;;;
2019/04/16 11:35:34;;;;;;;1.9;0.7;;;;;;;31.21;11.6875;936.8608;;;;
2019/04/16 11:38:02;;;;;;;1.5;0.9;;;;;;;27.77;15.20898;936.6694;;;;
2019/04/16 11:40:31;;;;;;;1.1;0.9;;;;;;;24.55;20.2627;936.7827;;;;
2019/04/16 11:42:56;;;;;;;2;0.9;;;;;;;22.74;22.32813;936.7354;;;;
2019/04/16 11:45:25;;;;;;;1.8;1;;;;;;;24.61;19.80566;936.7994;;;;
2019/04/16 11:47:50;;;;;;;1.9;1;;;;;;;28.09;16.90625;936.7734;;;;
2019/04/16 11:50:29;;;;;;;1.3;0.9;;;;;;;30.61;13.76367;936.8351;;;;
2019/04/16 11:52:54;;;;;;;2.2;0.9;;;;;;;28.21;17.23242;936.8144;;;;
2019/04/16 11:55:19;;;;;;;3.2;1;;;;;;;25.16;19.0625;936.7817;;;;
2019/04/16 11:57:48;;;;;;;1.3;1;;;;;;;23.2;20.24805;936.7366;;;;
2019/04/16 12:00:20;;;;;;;1.4;1.1;;;;;;;21.57;24.20215;936.7456;;;;
2019/04/16 12:02:51;;;;;;;1.8;1;;;;;;;20.74;24.89258;936.731;;;;
2019/04/16 12:05:12;;;;;;;1.2;1;;;;;;;20.61;24.75684;936.7784;;;;
2019/04/16 12:07:45;;;;;;;1.5;1.1;;;;;;;20.78;24.55664;936.7466;;;;
2019/04/16 12:19:17;;;;;;;1.3;1.2;;;;;;;20.22;27.12891;936.7405;;;;
2019/04/16 12:21:17;;;;;;;2.7;1.5;;;;;;;19.86;26.58105;936.7159;;;;
2019/04/16 12:23:47;;;;;;;2.2;1.2;;;;;;;19.85;28.20215;936.7089;;;;
2019/04/16 12:31:20;;;;;;;1.5;1.3;;;;;;;19.59;26.36719;936.7899;;;;
2019/04/16 12:33:44;;;;;;;1.6;1.4;;;;;;;19.7;26.88672;936.7849;;;;
2019/04/16 12:38:04;;;;;;;1.6;1.3;;;;;;;19.64;28.6084;936.8059;;;;
2019/04/16 12:38:46;;;;;;;5.3;1.6;;;;;;;19.62;29.01563;936.7302;;;;
2019/04/16 12:42:16;;;;;;;1.5;1.2;;;;;;;19.81;29.95996;936.7784;;;;
2019/04/16 12:43:30;;;;;;;1.5;1.4;;;;;;;20.21;27.89844;936.6945;;;;
2019/04/16 12:45:58;;;;;;;1.5;1.3;;;;;;;19.58;27.14746;936.8177;;;;
2019/04/16 12:59:03;;;;;;;3;1.3;;;;;;;21.6;23.72363;936.7583;;;;
2019/04/16 13:01:31;;;;;;;1.9;1.5;;;;;;;21.34;23.10156;936.6998;;;;
2019/04/16 13:04:38;;;;;;;1.6;1.3;;;;;;;21.6;24.83594;936.7594;;;;
2019/04/16 13:11:34;;;;;;;1.8;1.3;;;;;;;20.72;26.34082;936.747;;;;
2019/04/16 13:16:17;;;;;;;2.1;1.2;;;;;;;20.97;27.31445;936.7254;;;;
2019/04/16 13:21:15;;;;;;;6.6;1.6;;;;;;;21.21;26.86133;936.8392;;;;
2019/04/16 13:23:56;;;;;;;2.1;1.3;;;;;;;21;28.98926;936.7431;;;;
2019/04/16 13:26:22;;;;;;;3.7;1.6;;;;;;;20.69;27.2041;936.7552;;;;
2019/04/16 13:28:46;;;;;;;5.5;1.7;;;;;;;20.49;29.07227;936.7564;;;;
2019/04/16 13:31:27;;;;;;;1.5;1.3;;;;;;;20.33;28.2207;936.709;;;;
2019/04/16 13:33:56;;;;;;;2;1.4;;;;;;;19.76;31.55469;936.7548;;;;
2019/04/16 13:36:22;;;;;;;3.5;1.5;;;;;;;19.6;29.22363;936.759;;;;
2019/04/16 13:39:19;;;;;;;1.7;1.5;;;;;;;19.65;29.09863;936.787;;;;
2019/04/16 13:41:12;;;;;;;4.6;1.5;;;;;;;19.62;28.92188;936.8127;;;;
2019/04/16 13:43:49;;;;;;;3;1.5;;;;;;;19.07;30.93555;936.7932;;;;
2019/04/16 13:46:10;;;;;;;1.5;1.3;;;;;;;19.33;27.99414;936.764;;;;
2019/04/16 13:48:57;;;;;;;2.5;1.5;;;;;;;19.22;30.30469;936.7395;;;;
2019/04/16 13:51:11;;;;;;;2.3;1.4;;;;;;;19.36;29.25391;936.7859;;;;
2019/04/16 13:53:49;;;;;;;1.8;1.4;;;;;;;19.79;28.65332;936.7985;;;;
2019/04/16 13:56:33;;;;;;;3.4;1.5;;;;;;;19.74;27.40234;936.8742;;;;
2019/04/16 13:58:56;;;;;;;2.9;1.4;;;;;;;19.67;27.99316;936.8395;;;;
2019/04/16 14:01:22;;;;;;;3.6;1.7;;;;;;;19.66;27.63086;936.8755;;;;
2019/04/16 14:03:44;;;;;;;1.3;1.2;;;;;;;18.84;29.51074;936.8446;;;;
2019/04/16 14:06:09;;;;;;;5.6;1.4;;;;;;;19.53;28.53125;936.8027;;;;
2019/04/16 14:08:35;;;;;;;2.6;1.6;;;;;;;19.73;27.64648;936.8494;;;;
2019/04/16 14:11:02;;;;;;;3.1;1.4;;;;;;;19.93;28.42871;936.8956;;;;
2019/04/16 14:13:27;;;;;;;1.9;1.3;;;;;;;19.88;29.05566;936.9634;;;;
2019/04/16 14:15:57;;;;;;;1.7;1.2;;;;;;;19.7;30.60645;936.9608;;;;
2019/04/16 14:18:27;;;;;;;1.8;1.3;;;;;;;19.56;30.95703;937.0226;;;;
2019/04/16 14:20:55;;;;;;;2.1;1.4;;;;;;;19.29;29.17969;937.0017;;;;
2019/04/16 14:23:18;;;;;;;4.4;1.5;;;;;;;18.69;33.4209;936.9892;;;;
2019/04/16 14:25:43;;;;;;;8;1.6;;;;;;;18.58;33.22656;936.9945;;;;
2019/04/16 14:28:08;;;;;;;1.8;1.4;;;;;;;18.29;32.42578;937.0314;;;;
2019/04/16 14:30:40;;;;;;;3.6;1.6;;;;;;;18.14;33.30957;937.1062;;;;
2019/04/16 14:33:07;;;;;;;6.5;1.9;;;;;;;18.19;34.21973;937.0131;;;;
2019/04/16 14:35:35;;;;;;;8.2;1.8;;;;;;;18.03;32.75586;937.089;;;;
2019/04/16 14:38:07;;;;;;;6.1;1.8;;;;;;;18.14;32.25293;937.0923;;;;
2019/04/16 14:40:37;;;;;;;4.4;1.8;;;;;;;17.91;34.39551;937.113;;;;
2019/04/16 14:43:26;;;;;;;2.2;1.6;;;;;;;18.4;34.06152;937.0516;;;;
2019/04/16 14:45:49;;;;;;;2.9;1.8;;;;;;;18.55;31.70117;937.0541;;;;
2019/04/16 14:48:17;;;;;;;2.7;1.6;;;;;;;18.2;32.57031;937.1153;;;;
2019/04/16 14:50:42;;;;;;;6.4;1.8;;;;;;;17.74;34.64941;937.1339;;;;
2019/04/16 14:53:07;;;;;;;4.4;1.8;;;;;;;17.54;34.27344;937.1372;;;;
2019/04/16 14:55:55;;;;;;;9.4;1.8;;;;;;;17.56;34.9834;937.1384;;;;
2019/04/16 14:58:15;;;;;;;4.6;1.8;;;;;;;17.51;36.25586;937.158;;;;
2019/04/16 15:03:16;;;;;;;2.6;1.7;;;;;;;17.79;33.53906;937.2134;;;;
2019/04/16 15:08:33;;;;;;;4.9;2.3;;;;;;;18.07;34.76855;937.23;;;;
2019/04/16 15:10:57;;;;;;;2.1;1.5;;;;;;;17.95;35.59473;937.2798;;;;
2019/04/16 15:15:53;;;;;;;3;2;;;;;;;17.66;33.04199;937.2551;;;;
2019/04/16 15:18:10;;;;;;;3.6;1.8;;;;;;;18.01;32.71875;937.2681;;;;
2019/04/16 15:23:13;;;;;;;4.1;1.8;;;;;;;17.97;33.21582;937.3631;;;;
2019/04/16 15:26:15;;;;;;;3;1.8;;;;;;;18.08;33.08398;937.35;;;;
2019/04/16 15:28:13;;;;;;;3.6;2.2;;;;;;;18.23;32.82813;937.327;;;;
2019/04/16 15:30:52;;;;;;;2.6;1.8;;;;;;;17.93;33.97852;937.3214;;;;
2019/04/16 15:36:42;;;;;;;3.9;1.9;;;;;;;18.28;33.0293;937.4105;;;;
2019/04/16 15:39:22;;;;;;;2.5;1.7;;;;;;;18.45;31.81055;937.3586;;;;
2019/04/16 15:41:40;;;;;;;3.3;1.9;;;;;;;18.6;32.7041;937.3658;;;;
2019/04/16 15:44:19;;;;;;;3.1;1.5;;;;;;;18.29;32.64648;937.4135;;;;
2019/04/16 15:47:16;;;;;;;1.8;1.6;;;;;;;18.25;32.28418;937.3667;;;;
2019/04/16 15:51:35;;;;;;;2.2;1.7;;;;;;;18.37;32.62988;937.3819;;;;
2019/04/16 15:54:50;;;;;;;3.1;1.8;;;;;;;18.33;32.18457;937.3788;;;;
2019/04/16 15:56:28;;;;;;;3.3;1.8;;;;;;;18.18;32.8252;937.384;;;;
2019/04/16 15:59:22;;;;;;;2.9;1.9;;;;;;;18.23;32.72363;937.4044;;;;
2019/04/16 16:01:29;;;;;;;4.9;1.8;;;;;;;18.39;32.94531;937.375;;;;
2019/04/16 16:07:35;;;;;;;4.3;1.9;;;;;;;18.23;31.71289;937.3389;;;;
2019/04/16 16:10:10;;;;;;;3.3;1.8;;;;;;;18.08;32.96777;937.4016;;;;
2019/04/16 16:12:29;;;;;;;3.7;2.3;;;;;;;18.08;32.36328;937.4313;;;;
2019/04/16 16:15:10;;;;;;;2.1;1.9;;;;;;;18.11;31.85547;937.3461;;;;
2019/04/16 16:17:39;;;;;;;3.2;1.9;;;;;;;17.97;33.05273;937.4067;;;;
2019/04/16 16:20:17;;;;;;;2.6;1.8;;;;;;;18.07;32.5957;937.4155;;;;
2019/04/16 16:22:42;;;;;;;2.5;1.8;;;;;;;18.1;32.13379;937.4503;;;;
2019/04/16 16:25:07;;;;;;;2.2;1.7;;;;;;;18.13;32.00781;937.4811;;;;
2019/04/16 16:27:32;;;;;;;1.7;1.6;;;;;;;18.03;32.19727;937.4976;;;;
2019/04/16 16:29:57;;;;;;;3;1.8;;;;;;;17.94;32.64355;937.5087;;;;
2019/04/16 16:32:33;;;;;;;3;1.8;;;;;;;17.92;32.58496;937.5286;;;;
2019/04/16 16:35:04;;;;;;;2.5;1.7;;;;;;;17.67;33.29688;937.5594;;;;
2019/04/16 16:37:31;;;;;;;3.4;1.9;;;;;;;17.85;32.86914;937.563;;;;
2019/04/16 16:39:56;;;;;;;4.6;2;;;;;;;17.56;33.78809;937.62;;;;
2019/04/16 16:42:21;;;;;;;4;2.3;;;;;;;17.65;33.79492;937.6217;;;;
2019/04/16 16:44:46;;;;;;;3.4;2.1;;;;;;;17.76;32.77051;937.6594;;;;
2019/04/16 16:47:27;;;;;;;6.8;2;;;;;;;17.78;33.02734;937.6744;;;;
2019/04/16 16:49:37;;;;;;;3.5;2;;;;;;;17.93;33.46777;937.6992;;;;
2019/04/16 16:54:27;;;;;;;3.8;1.6;;;;;;;18.02;33.87012;937.7352;;;;
2019/04/16 16:57:02;;;;;;;3.9;1.7;;;;;;;18;34.33301;937.7114;;;;
2019/04/16 17:03:53;;;;;;;2.8;1.7;;;;;;;17.88;34.9043;937.7436;;;;
2019/04/16 17:07:08;;;;;;;3.9;1.9;;;;;;;17.78;35.5918;937.8597;;;;
2019/04/16 17:09:36;;;;;;;3.6;1.9;;;;;;;17.8;36.96387;937.8608;;;;
2019/04/16 17:12:09;;;;;;;7.3;2.7;;;;;;;16.86;43.09375;937.9406;;;;
2019/04/16 17:15:31;;;;;;;4.2;2.1;;;;;;;16.52;37.11133;937.9207;;;;
2019/04/16 17:17:54;;;;;;;3.9;2;;;;;;;16.51;39.18359;937.9384;;;;
2019/04/16 17:20:19;;;;;;;3.9;2;;;;;;;15.67;38.91113;938.0239;;;;
2019/04/16 17:22:54;;;;;;;3.2;2.2;;;;;;;15.41;41.52051;938.0352;;;;
2019/04/16 17:25:25;;;;;;;3;1.9;;;;;;;15.33;39.89551;938.028;;;;
2019/04/16 17:27:58;;;;;;;3.6;2.5;;;;;;;15.62;40.4668;938.0765;;;;
2019/04/16 17:30:25;;;;;;;5.4;3;;;;;;;15.74;38.67383;938.0545;;;;
2019/04/16 17:32:58;;;;;;;4.7;2.5;;;;;;;15.63;38.84961;938.1054;;;;
2019/04/16 17:35:24;;;;;;;3.7;2.4;;;;;;;15.89;38.55957;938.1358;;;;
2019/04/16 17:37:49;;;;;;;6.1;2.7;;;;;;;15.88;37.84277;938.1584;;;;
2019/04/16 17:40:22;;;;;;;4;2.7;;;;;;;16.19;37.73047;938.225;;;;
2019/04/16 17:42:51;;;;;;;6.2;2.6;;;;;;;16.03;39.86719;938.2397;;;;
2019/04/16 17:50:41;;;;;;;6.4;2.7;;;;;;;15.52;39.75195;938.199;;;;
2019/04/16 17:53:33;;;;;;;6.1;2.8;;;;;;;15.54;41.19824;938.2645;;;;
2019/04/16 17:56:26;;;;;;;12;4;;;;;;;15.09;43.05859;938.252;;;;
2019/04/16 17:58:41;;;;;;;10.5;3.6;;;;;;;15.04;43.22754;938.3855;;;;
2019/04/16 18:05:52;;;;;;;12.4;3.4;;;;;;;15.31;43.81934;938.3892;;;;